Time;durP1;ratioP1;P1;durP2;ratioP2;P2;SDS_P1;SDS_P2;PMS_P1;PMS_P2;Temp;Humidity;BMP_temperature;BMP_pressure;BME280_temperature;BME280_humidity;BME280_pressure;Samples;Min_cycle;Max_cycle;Signal;HPM_P1;HPM_P2
2022/11/03 00:01:09;;;;;;;2.15;2.05;;;17.20;60.30;;;;;;5013540;28;20246;-73
2022/11/03 00:03:34;;;;;;;1.58;1.48;;;17.20;60.10;;;;;;5010348;28;20204;-73
2022/11/03 00:06:03;;;;;;;4.75;1.65;;;17.20;60.10;;;;;;5012447;28;20192;-73
2022/11/03 00:08:40;;;;;;;6.05;1.65;;;17.20;60.30;;;;;;5009726;28;20247;-72
2022/11/03 00:11:11;;;;;;;4.53;1.70;;;17.20;61.30;;;;;;5011594;28;21160;-73
2022/11/03 00:13:39;;;;;;;7.00;1.63;;;17.20;61.10;;;;;;5015678;28;20199;-72
2022/11/03 00:16:06;;;;;;;2.10;1.55;;;17.20;61.00;;;;;;5015556;28;20757;-73
2022/11/03 00:18:32;;;;;;;1.80;1.65;;;17.30;60.90;;;;;;5011845;28;20201;-73
2022/11/03 00:21:06;;;;;;;1.55;1.45;;;17.30;60.80;;;;;;5005777;28;20224;-73
2022/11/03 00:23:36;;;;;;;2.03;1.92;;;17.20;61.40;;;;;;5009740;28;20242;-72
2022/11/03 00:26:12;;;;;;;1.30;1.30;;;17.30;60.70;;;;;;5017160;28;20188;-73
2022/11/03 00:28:39;;;;;;;1.90;1.80;;;17.40;61.10;;;;;;5013450;28;20262;-73
2022/11/03 00:31:11;;;;;;;2.95;1.80;;;17.40;60.90;;;;;;5013609;28;20755;-73
2022/11/03 00:33:38;;;;;;;1.90;1.38;;;17.40;61.60;;;;;;5017031;28;20220;-72
2022/11/03 00:36:05;;;;;;;1.95;1.20;;;17.50;61.50;;;;;;5014154;28;20243;-72
2022/11/03 00:38:31;;;;;;;4.93;1.98;;;17.50;61.00;;;;;;5017149;28;20208;-73
2022/11/03 00:41:01;;;;;;;2.08;1.92;;;17.50;61.30;;;;;;5017786;28;20673;-72
2022/11/03 00:43:28;;;;;;;2.40;1.92;;;17.50;61.10;;;;;;5008651;28;20188;-73
2022/11/03 00:45:55;;;;;;;1.70;1.60;;;17.50;61.30;;;;;;5012509;28;20207;-73
2022/11/03 00:48:33;;;;;;;2.08;1.92;;;17.50;61.20;;;;;;5011314;28;20191;-72
2022/11/03 00:51:04;;;;;;;3.13;2.65;;;17.50;61.60;;;;;;5012808;28;20189;-72
2022/11/03 00:53:32;;;;;;;2.10;1.92;;;17.50;61.30;;;;;;5010773;28;20621;-73
2022/11/03 00:55:59;;;;;;;3.08;2.00;;;17.50;61.40;;;;;;5015081;28;20184;-73
2022/11/03 00:58:25;;;;;;;2.60;2.40;;;17.40;61.30;;;;;;5012187;28;20686;-73
2022/11/03 01:00:57;;;;;;;3.03;1.83;;;17.40;61.70;;;;;;5014827;28;20230;-72
2022/11/03 01:03:22;;;;;;;2.03;1.83;;;17.40;61.50;;;;;;5012067;28;20207;-71
2022/11/03 01:08:33;;;;;;;2.47;2.30;;;17.30;61.20;;;;;;5011346;28;20809;-72
2022/11/03 01:11:43;;;;;;;3.30;2.58;;;17.30;61.90;;;;;;5014491;28;20176;-72
2022/11/03 01:14:11;;;;;;;3.28;2.97;;;17.30;62.60;;;;;;4977030;28;20194;-73
2022/11/03 01:16:37;;;;;;;2.50;2.30;;;17.30;62.50;;;;;;4978707;28;20185;-73
2022/11/03 01:19:03;;;;;;;2.67;2.40;;;17.10;62.90;;;;;;4977872;28;20320;-73
2022/11/03 01:21:29;;;;;;;4.20;2.08;;;17.10;63.10;;;;;;4977397;28;20186;-73
2022/11/03 01:23:54;;;;;;;2.65;2.35;;;17.00;63.70;;;;;;4974129;28;20232;-73
2022/11/03 01:26:20;;;;;;;4.63;2.45;;;16.90;64.00;;;;;;4977388;28;20232;-73
2022/11/03 01:28:47;;;;;;;7.55;2.72;;;16.80;65.00;;;;;;4975892;28;20361;-73
2022/11/03 01:31:18;;;;;;;3.50;2.25;;;16.70;64.80;;;;;;4979505;28;20270;-73
2022/11/03 01:33:45;;;;;;;5.25;2.22;;;16.60;65.00;;;;;;4992869;28;20683;-73
2022/11/03 01:36:12;;;;;;;4.38;2.38;;;16.50;65.30;;;;;;4975132;28;20190;-73
2022/11/03 01:38:37;;;;;;;10.07;2.67;;;16.40;66.00;;;;;;4975523;28;20229;-73
2022/11/03 01:41:06;;;;;;;3.40;3.00;;;16.40;65.50;;;;;;4977755;28;20182;-73
2022/11/03 01:43:31;;;;;;;3.03;2.50;;;16.40;65.60;;;;;;4977738;28;20218;-73
2022/11/03 01:46:27;;;;;;;4.78;2.60;;;16.50;65.00;;;;;;4980553;28;20228;-72
2022/11/03 01:49:02;;;;;;;8.50;3.08;;;16.50;65.80;;;;;;4977282;28;20205;-73
2022/11/03 01:51:29;;;;;;;3.17;2.88;;;16.60;65.00;;;;;;5015061;28;20978;-73
2022/11/03 01:53:57;;;;;;;4.10;2.53;;;16.60;65.90;;;;;;5013790;28;20176;-73
2022/11/03 01:56:23;;;;;;;4.70;2.88;;;16.40;66.60;;;;;;5010893;28;20177;-71
2022/11/03 01:58:52;;;;;;;3.85;3.55;;;16.40;66.30;;;;;;5012428;28;20606;-72
2022/11/03 02:01:18;;;;;;;3.58;3.30;;;16.40;66.80;;;;;;5008646;28;20789;-72
2022/11/03 02:03:51;;;;;;;5.13;3.75;;;16.40;67.10;;;;;;5018417;28;20254;-72
2022/11/03 02:06:22;;;;;;;11.55;3.28;;;16.30;67.00;;;;;;5009831;28;20191;-72
2022/11/03 02:08:55;;;;;;;7.00;3.72;;;16.30;66.60;;;;;;5010397;28;20207;-72
2022/11/03 02:14:11;;;;;;;5.22;3.42;;;16.10;69.30;;;;;;5007253;28;20187;-72
2022/11/03 02:16:37;;;;;;;4.80;3.60;;;16.10;67.60;;;;;;5011186;28;20678;-71
2022/11/03 02:19:07;;;;;;;7.38;4.15;;;15.90;69.70;;;;;;5014131;28;20303;-72
2022/11/03 02:21:54;;;;;;;6.22;3.72;;;16.00;68.10;;;;;;5014600;28;20334;-71
2022/11/03 02:24:59;;;;;;;6.78;3.63;;;16.00;69.10;;;;;;5014045;28;20188;-71
2022/11/03 02:27:25;;;;;;;3.80;3.50;;;16.00;69.10;;;;;;4983579;28;20193;-73
2022/11/03 02:29:50;;;;;;;8.60;3.58;;;16.00;69.20;;;;;;4965497;28;20665;-72
2022/11/03 02:32:19;;;;;;;5.25;3.78;;;15.90;69.10;;;;;;4983328;28;20232;-72
2022/11/03 02:35:09;;;;;;;7.00;3.60;;;15.90;69.20;;;;;;4978977;28;20232;-73
2022/11/03 02:37:40;;;;;;;7.38;3.90;;;16.00;67.60;;;;;;4983885;28;20586;-73
2022/11/03 02:40:12;;;;;;;4.38;3.97;;;16.10;67.60;;;;;;4976169;28;20787;-72
2022/11/03 02:42:41;;;;;;;6.32;4.35;;;16.20;67.90;;;;;;4957997;28;20209;-71
2022/11/03 02:45:10;;;;;;;9.90;4.18;;;16.10;68.00;;;;;;4981090;28;20369;-72
2022/11/03 02:47:37;;;;;;;7.20;3.90;;;16.10;68.70;;;;;;4979879;28;20192;-73
2022/11/03 02:50:07;;;;;;;5.43;4.05;;;16.20;68.40;;;;;;4981439;28;20189;-73
2022/11/03 02:52:47;;;;;;;5.72;3.70;;;16.20;67.70;;;;;;4995129;28;20193;-72
2022/11/03 02:55:19;;;;;;;5.32;4.22;;;16.10;67.80;;;;;;4980755;28;20216;-72
2022/11/03 02:57:54;;;;;;;3.90;3.70;;;16.10;67.60;;;;;;4979157;28;20222;-73
2022/11/03 03:00:20;;;;;;;3.67;3.38;;;16.00;68.10;;;;;;4975321;28;20201;-72
2022/11/03 03:03:04;;;;;;;3.97;3.63;;;16.10;68.00;;;;;;4976861;28;20275;-72
2022/11/03 03:05:33;;;;;;;8.02;4.50;;;16.10;67.80;;;;;;5007389;28;20275;-72
2022/11/03 03:08:04;;;;;;;4.47;3.83;;;16.00;68.00;;;;;;5010145;28;20189;-72
2022/11/03 03:10:35;;;;;;;6.18;3.65;;;16.00;67.90;;;;;;5014244;28;20189;-72
2022/11/03 03:13:04;;;;;;;5.20;3.67;;;16.00;68.00;;;;;;5014302;28;20203;-73
2022/11/03 03:15:41;;;;;;;9.73;3.78;;;16.00;67.50;;;;;;5013137;28;20269;-73
2022/11/03 03:18:20;;;;;;;5.15;3.72;;;16.00;67.50;;;;;;5010582;28;20251;-73
2022/11/03 03:20:57;;;;;;;4.53;3.28;;;16.00;67.50;;;;;;5009860;28;20703;-72
2022/11/03 03:23:26;;;;;;;3.75;3.20;;;16.00;67.10;;;;;;5013073;28;20987;-73
2022/11/03 03:26:03;;;;;;;6.18;3.10;;;16.00;67.30;;;;;;5014150;28;20181;-72
2022/11/03 03:28:53;;;;;;;4.55;3.72;;;15.90;66.70;;;;;;5011594;28;20267;-73
2022/11/03 03:31:21;;;;;;;6.20;3.45;;;15.90;68.30;;;;;;5013288;28;20274;-73
2022/11/03 03:33:49;;;;;;;3.75;3.15;;;15.90;67.80;;;;;;5015528;28;20188;-72
2022/11/03 03:36:18;;;;;;;5.57;3.80;;;15.90;67.80;;;;;;5011923;28;20212;-72
2022/11/03 03:38:53;;;;;;;5.82;3.95;;;15.90;67.80;;;;;;5013030;28;20253;-73
2022/11/03 03:41:20;;;;;;;6.15;3.72;;;15.90;67.70;;;;;;5017713;28;20639;-72
2022/11/03 03:43:50;;;;;;;6.53;3.88;;;15.90;68.00;;;;;;5009736;28;20274;-72
2022/11/03 03:46:17;;;;;;;4.70;3.90;;;16.00;67.60;;;;;;5011941;28;20227;-72
2022/11/03 03:48:43;;;;;;;8.13;4.00;;;15.90;67.90;;;;;;5015447;28;20681;-74
2022/11/03 03:51:10;;;;;;;3.22;2.95;;;15.90;68.20;;;;;;5017898;28;20208;-73
2022/11/03 03:53:36;;;;;;;5.88;3.85;;;15.90;68.30;;;;;;5015544;28;20247;-72
2022/11/03 03:56:04;;;;;;;8.45;3.75;;;15.90;68.60;;;;;;5010469;28;20235;-72
2022/11/03 03:58:30;;;;;;;4.57;4.05;;;15.90;68.30;;;;;;5012570;28;20220;-72
2022/11/03 04:00:56;;;;;;;4.82;3.47;;;15.80;68.90;;;;;;5009780;28;20191;-73
2022/11/03 04:03:25;;;;;;;6.93;3.95;;;15.80;68.50;;;;;;5013224;28;20971;-73
2022/11/03 04:05:52;;;;;;;5.28;4.30;;;15.80;68.80;;;;;;5010278;28;20203;-73
2022/11/03 04:08:18;;;;;;;3.90;3.65;;;15.80;68.60;;;;;;5016470;28;20212;-73
2022/11/03 04:24:27;;;;;;;9.07;5.70;;;15.60;69.20;;;;;;5009382;28;20748;-72
2022/11/03 04:26:54;;;;;;;12.85;4.50;;;15.60;69.40;;;;;;5014989;28;20180;-72
2022/11/03 04:29:19;;;;;;;8.63;4.47;;;15.60;69.40;;;;;;5014931;28;20185;-72
2022/11/03 04:31:45;;;;;;;7.50;4.15;;;15.40;70.40;;;;;;5015908;28;20211;-73
2022/11/03 04:34:12;;;;;;;7.07;4.45;;;15.30;71.20;;;;;;5015440;28;20184;-73
2022/11/03 04:36:38;;;;;;;6.03;4.43;;;15.30;70.40;;;;;;5007207;28;21042;-72
2022/11/03 04:39:17;;;;;;;5.10;4.30;;;15.30;70.20;;;;;;5011067;28;20217;-71
2022/11/03 04:41:43;;;;;;;6.20;3.60;;;15.30;70.10;;;;;;5015025;28;20562;-73
2022/11/03 04:44:15;;;;;;;7.03;4.50;;;15.30;70.20;;;;;;5013309;28;20204;-73
2022/11/03 04:46:42;;;;;;;5.57;3.90;;;15.30;69.60;;;;;;5010061;28;20192;-74
2022/11/03 04:49:15;;;;;;;7.90;4.55;;;15.20;70.30;;;;;;5013449;28;20283;-73
2022/11/03 04:51:41;;;;;;;5.35;4.30;;;15.30;69.90;;;;;;5015585;28;20212;-73
2022/11/03 04:54:17;;;;;;;7.50;4.65;;;15.20;70.30;;;;;;5008249;28;20177;-73
2022/11/03 04:56:43;;;;;;;5.28;4.20;;;15.20;69.60;;;;;;5008960;28;20194;-72
2022/11/03 04:59:11;;;;;;;4.75;4.22;;;15.10;70.50;;;;;;5014363;28;20212;-72
2022/11/03 05:01:37;;;;;;;8.38;4.53;;;15.10;70.10;;;;;;5010074;28;20562;-72
2022/11/03 05:04:10;;;;;;;4.35;3.95;;;15.10;70.30;;;;;;5010400;28;20185;-73
2022/11/03 05:06:36;;;;;;;5.40;4.60;;;15.10;70.60;;;;;;5008560;28;20556;-73
2022/11/03 05:09:21;;;;;;;12.85;5.75;;;15.00;70.60;;;;;;5006338;28;20239;-73
2022/11/03 05:11:47;;;;;;;8.75;4.95;;;15.00;70.30;;;;;;5009359;28;20561;-73
2022/11/03 05:14:17;;;;;;;6.50;3.80;;;15.00;71.00;;;;;;5014234;28;20246;-72
2022/11/03 05:16:43;;;;;;;9.13;4.47;;;14.90;70.80;;;;;;5010696;28;20177;-72
2022/11/03 05:19:19;;;;;;;6.70;4.30;;;15.00;70.40;;;;;;5008961;28;20215;-72
2022/11/03 05:21:48;;;;;;;5.13;4.22;;;14.90;69.60;;;;;;5006503;28;20185;-72
2022/11/03 05:24:15;;;;;;;7.80;4.63;;;14.90;70.60;;;;;;5008706;28;20181;-72
2022/11/03 05:26:42;;;;;;;8.43;5.47;;;14.90;71.30;;;;;;5012293;28;20704;-69
2022/11/03 05:29:13;;;;;;;6.75;4.90;;;14.90;71.60;;;;;;5005649;28;20247;-69
2022/11/03 05:31:41;;;;;;;8.75;5.40;;;14.90;71.50;;;;;;5009368;28;20618;-68
2022/11/03 05:34:40;;;;;;;10.05;5.53;;;14.90;71.40;;;;;;5008743;28;20220;-71
2022/11/03 05:37:05;;;;;;;14.88;6.00;;;14.90;70.60;;;;;;5004622;28;20276;-71
2022/11/03 05:39:43;;;;;;;7.70;5.25;;;14.90;70.50;;;;;;5007692;28;20299;-70
2022/11/03 05:42:30;;;;;;;7.82;5.00;;;14.90;69.70;;;;;;5006254;28;20183;-70
2022/11/03 05:44:56;;;;;;;7.85;5.20;;;14.90;69.80;;;;;;5008480;28;20180;-72
2022/11/03 05:47:33;;;;;;;7.05;5.20;;;14.90;70.80;;;;;;5013340;28;20279;-72
2022/11/03 05:50:26;;;;;;;9.60;5.65;;;14.90;70.00;;;;;;5010851;28;20200;-71
2022/11/03 05:52:58;;;;;;;11.02;5.03;;;15.00;71.40;;;;;;5003118;28;20181;-71
2022/11/03 05:55:32;;;;;;;11.90;5.75;;;15.00;70.70;;;;;;5002603;28;20192;-71
2022/11/03 05:58:11;;;;;;;9.30;5.30;;;15.00;70.50;;;;;;4999704;28;20180;-70
2022/11/03 06:00:40;;;;;;;10.70;4.97;;;15.00;70.30;;;;;;5005323;28;20196;-71
2022/11/03 06:03:08;;;;;;;14.00;5.82;;;15.10;71.30;;;;;;5006050;28;20196;-71
2022/11/03 06:05:34;;;;;;;12.30;5.85;;;15.10;71.40;;;;;;5007135;28;20181;-71
2022/11/03 06:08:12;;;;;;;6.88;5.97;;;15.20;71.70;;;;;;5008841;28;20185;-70
2022/11/03 06:10:44;;;;;;;14.00;6.63;;;15.30;71.10;;;;;;5009897;28;20910;-70
2022/11/03 06:13:25;;;;;;;7.63;5.53;;;15.30;70.70;;;;;;5003728;28;20212;-70
2022/11/03 06:15:57;;;;;;;6.45;5.38;;;15.30;70.10;;;;;;5005373;28;20203;-70
2022/11/03 06:18:28;;;;;;;9.65;6.13;;;15.40;71.20;;;;;;5008197;28;20213;-70
2022/11/03 06:20:58;;;;;;;10.32;6.43;;;15.50;71.00;;;;;;5005448;28;20200;-70
2022/11/03 06:23:25;;;;;;;8.20;6.05;;;15.50;70.50;;;;;;5004467;28;20271;-71
2022/11/03 06:25:52;;;;;;;7.10;5.72;;;15.60;70.40;;;;;;5013420;28;20704;-70
2022/11/03 06:28:35;;;;;;;9.15;6.75;;;15.60;70.60;;;;;;5011610;28;20235;-68
2022/11/03 06:31:03;;;;;;;10.57;6.30;;;15.70;70.40;;;;;;5007193;28;20670;-70
2022/11/03 06:33:33;;;;;;;10.80;6.82;;;15.80;71.20;;;;;;5011033;28;20180;-70
2022/11/03 06:36:10;;;;;;;10.82;6.18;;;16.00;71.00;;;;;;5014501;28;20262;-70
2022/11/03 06:38:35;;;;;;;8.55;6.68;;;16.10;71.50;;;;;;5011082;28;20653;-70
2022/11/03 06:41:01;;;;;;;10.82;6.78;;;16.30;71.40;;;;;;5007772;28;20181;-70
2022/11/03 06:43:40;;;;;;;13.02;7.05;;;16.50;71.20;;;;;;5007422;28;20188;-70
2022/11/03 06:46:20;;;;;;;14.15;7.55;;;16.90;70.10;;;;;;5005865;28;20303;-69
2022/11/03 06:48:45;;;;;;;10.55;7.20;;;17.30;69.00;;;;;;5005310;28;20189;-70
2022/11/03 06:51:21;;;;;;;12.25;7.70;;;17.70;69.20;;;;;;5009545;28;20315;-71
2022/11/03 06:53:49;;;;;;;11.63;7.80;;;18.20;68.30;;;;;;5004216;28;20192;-70
2022/11/03 06:56:27;;;;;;;10.25;6.97;;;18.70;67.80;;;;;;5008461;28;20410;-70
2022/11/03 06:58:54;;;;;;;12.40;7.25;;;19.20;66.10;;;;;;5015434;28;20274;-70
2022/11/03 07:01:31;;;;;;;10.43;7.20;;;19.70;66.00;;;;;;5006303;28;20192;-70
2022/11/03 07:04:00;;;;;;;10.02;7.10;;;20.20;64.80;;;;;;5007498;28;20188;-70
2022/11/03 07:06:30;;;;;;;12.60;7.43;;;20.70;64.60;;;;;;5007691;28;20185;-69
2022/11/03 07:09:03;;;;;;;13.65;7.30;;;21.20;63.10;;;;;;5007467;28;20616;-69
2022/11/03 07:11:34;;;;;;;10.55;7.65;;;21.50;62.70;;;;;;5014975;28;20266;-69
2022/11/03 07:14:13;;;;;;;12.90;7.95;;;22.00;62.50;;;;;;5014175;28;20275;-68
2022/11/03 07:16:49;;;;;;;11.70;8.38;;;22.50;61.10;;;;;;5013905;28;20184;-69
2022/11/03 07:19:26;;;;;;;13.82;7.88;;;23.00;60.70;;;;;;5009266;28;20216;-69
2022/11/03 07:22:13;;;;;;;13.30;7.65;;;23.50;59.50;;;;;;5011815;28;20191;-69
2022/11/03 07:24:43;;;;;;;14.25;7.63;;;23.90;59.20;;;;;;5018532;28;20193;-70
2022/11/03 07:27:34;;;;;;;13.63;8.00;;;24.30;58.80;;;;;;5011354;28;20239;-70
2022/11/03 07:30:13;;;;;;;12.55;7.93;;;24.80;58.20;;;;;;5015220;28;20280;-70
2022/11/03 07:32:38;;;;;;;14.38;8.48;;;25.20;57.60;;;;;;5009271;28;20188;-70
2022/11/03 07:35:39;;;;;;;22.02;8.35;;;25.60;56.80;;;;;;5014592;28;20627;-70
2022/11/03 07:38:13;;;;;;;11.32;7.53;;;26.00;56.30;;;;;;5003762;28;20197;-69
2022/11/03 07:40:39;;;;;;;14.82;8.13;;;26.50;55.20;;;;;;5002125;28;20195;-70
2022/11/03 07:43:19;;;;;;;9.02;8.07;;;26.90;54.80;;;;;;5003738;28;20280;-69
2022/11/03 07:45:56;;;;;;;11.00;7.78;;;27.30;54.20;;;;;;5003834;28;20200;-69
2022/11/03 07:48:22;;;;;;;14.20;8.68;;;27.60;53.90;;;;;;5002783;28;20230;-70
2022/11/03 07:50:50;;;;;;;11.85;7.80;;;28.00;53.40;;;;;;5003823;28;20201;-70
2022/11/03 07:53:38;;;;;;;12.95;9.13;;;28.30;53.10;;;;;;5002546;28;20185;-70
2022/11/03 07:56:19;;;;;;;9.30;7.68;;;28.60;53.10;;;;;;5004240;28;20221;-70
2022/11/03 07:58:48;;;;;;;10.77;8.52;;;28.90;51.40;;;;;;5003716;28;20220;-71
2022/11/03 08:01:35;;;;;;;13.45;8.98;;;29.20;51.60;;;;;;5002933;28;20196;-71
2022/11/03 08:04:05;;;;;;;13.15;8.13;;;29.40;50.70;;;;;;5002855;28;20185;-70
2022/11/03 08:06:31;;;;;;;14.23;8.95;;;29.60;50.90;;;;;;5002848;28;20266;-70
2022/11/03 08:08:57;;;;;;;16.30;8.63;;;29.90;50.50;;;;;;5003906;28;20756;-70
2022/11/03 08:11:23;;;;;;;10.65;8.55;;;30.20;49.50;;;;;;5002865;28;20185;-70
2022/11/03 08:13:50;;;;;;;13.77;9.43;;;30.50;48.80;;;;;;5003334;28;20584;-71
2022/11/03 08:16:16;;;;;;;13.07;8.88;;;30.50;49.40;;;;;;5009755;28;20236;-71
2022/11/03 08:18:42;;;;;;;12.32;9.00;;;30.70;48.80;;;;;;5009791;28;20221;-70
2022/11/03 08:21:08;;;;;;;10.98;9.10;;;30.80;49.20;;;;;;5043388;28;20203;-71
2022/11/03 08:23:33;;;;;;;12.15;9.13;;;31.00;49.10;;;;;;5015669;28;20284;-70
2022/11/03 08:25:59;;;;;;;11.43;8.20;;;31.30;49.00;;;;;;5015149;28;20811;-70
2022/11/03 08:28:25;;;;;;;12.50;8.75;;;31.70;48.20;;;;;;5013440;28;20239;-70
2022/11/03 08:30:51;;;;;;;13.35;9.20;;;32.00;48.10;;;;;;5013323;28;20185;-70
2022/11/03 08:33:16;;;;;;;10.60;8.32;;;32.40;47.50;;;;;;5013508;28;20287;-70
2022/11/03 08:35:42;;;;;;;12.55;8.88;;;32.70;47.20;;;;;;5010115;28;20213;-70
2022/11/03 08:38:08;;;;;;;13.02;8.65;;;32.90;45.90;;;;;;5008638;28;20188;-69
2022/11/03 08:40:33;;;;;;;12.00;8.40;;;33.10;46.90;;;;;;5009640;28;20177;-70
2022/11/03 08:43:01;;;;;;;12.35;7.93;;;33.30;46.00;;;;;;5015205;28;20689;-70
2022/11/03 08:45:28;;;;;;;11.48;7.88;;;33.50;46.60;;;;;;5012733;28;20255;-70
2022/11/03 08:47:55;;;;;;;8.00;7.28;;;33.70;45.90;;;;;;5008988;28;20302;-70
2022/11/03 08:50:20;;;;;;;9.25;8.25;;;33.80;44.40;;;;;;5015089;28;20227;-69
2022/11/03 08:52:46;;;;;;;8.95;7.80;;;34.00;43.90;;;;;;5005610;28;20181;-70
2022/11/03 08:55:12;;;;;;;10.30;7.18;;;34.10;45.70;;;;;;5013573;28;20773;-70
2022/11/03 08:57:38;;;;;;;11.60;7.40;;;34.20;45.40;;;;;;5011196;28;20188;-70
2022/11/03 09:00:04;;;;;;;10.10;7.70;;;34.30;45.50;;;;;;5013256;28;20216;-70
2022/11/03 09:02:30;;;;;;;11.50;7.85;;;34.40;44.90;;;;;;5013987;28;20573;-69
2022/11/03 09:04:56;;;;;;;9.05;7.68;;;34.60;44.90;;;;;;5012336;28;20188;-69
2022/11/03 09:07:22;;;;;;;10.50;7.53;;;34.70;45.10;;;;;;5011953;28;20188;-69
2022/11/03 09:09:47;;;;;;;8.73;6.60;;;34.80;44.40;;;;;;5016133;28;20665;-70
2022/11/03 09:12:13;;;;;;;10.60;6.53;;;34.80;44.60;;;;;;5010192;28;20177;-70
2022/11/03 09:14:39;;;;;;;10.50;7.68;;;34.80;44.80;;;;;;5007009;28;20188;-71
2022/11/03 09:17:05;;;;;;;11.00;7.82;;;34.90;44.30;;;;;;5014643;28;20275;-70
2022/11/03 09:19:30;;;;;;;9.30;8.00;;;35.00;43.40;;;;;;5018438;28;20212;-70
2022/11/03 09:21:56;;;;;;;9.30;8.18;;;35.20;44.60;;;;;;5015617;28;20238;-70
2022/11/03 09:24:22;;;;;;;8.95;7.28;;;35.30;43.90;;;;;;5012880;28;20192;-70
2022/11/03 09:26:47;;;;;;;13.10;6.70;;;35.50;44.20;;;;;;5014150;28;20626;-70
2022/11/03 09:29:13;;;;;;;12.70;7.95;;;35.70;44.10;;;;;;5014983;28;20751;-70
2022/11/03 09:31:39;;;;;;;7.88;6.75;;;35.80;44.10;;;;;;5013125;28;20185;-70
2022/11/03 09:34:04;;;;;;;9.65;7.18;;;35.90;43.50;;;;;;5014453;28;20206;-70
2022/11/03 09:36:30;;;;;;;11.05;6.72;;;36.10;42.70;;;;;;5012465;28;20195;-70
2022/11/03 09:38:56;;;;;;;8.25;6.70;;;36.20;41.20;;;;;;5012210;28;20216;-70
2022/11/03 09:41:22;;;;;;;7.40;6.75;;;35.90;42.10;;;;;;5013209;28;20198;-70
2022/11/03 09:43:48;;;;;;;9.38;6.80;;;35.80;42.00;;;;;;5013333;28;20259;-70
2022/11/03 09:46:16;;;;;;;9.63;6.50;;;35.60;43.50;;;;;;5006826;28;20188;-69
2022/11/03 09:48:42;;;;;;;11.38;6.43;;;35.50;41.80;;;;;;5016040;28;20195;-70
2022/11/03 09:51:17;;;;;;;6.65;6.05;;;35.50;42.50;;;;;;5011784;28;20736;-69
2022/11/03 09:53:43;;;;;;;8.57;6.25;;;35.50;44.20;;;;;;5008228;28;20188;-69
2022/11/03 09:56:11;;;;;;;7.45;6.60;;;35.70;43.60;;;;;;5011306;28;20180;-70
2022/11/03 09:58:37;;;;;;;6.70;5.75;;;35.90;43.80;;;;;;5014848;28;20212;-70
2022/11/03 10:01:03;;;;;;;11.30;6.50;;;36.10;43.20;;;;;;5014375;28;20195;-70
2022/11/03 10:03:29;;;;;;;10.52;7.18;;;36.20;42.10;;;;;;5009015;28;20192;-69
2022/11/03 10:05:55;;;;;;;7.85;6.32;;;35.90;42.70;;;;;;5012621;28;20207;-70
2022/11/03 10:08:27;;;;;;;10.65;6.93;;;35.70;41.70;;;;;;5012242;28;20216;-70
2022/11/03 10:10:54;;;;;;;10.45;7.65;;;35.50;43.10;;;;;;5012621;28;20257;-71
2022/11/03 10:13:47;;;;;;;8.30;6.30;;;35.50;43.40;;;;;;5012559;28;20199;-69
2022/11/03 10:16:19;;;;;;;6.80;5.57;;;35.50;41.90;;;;;;5007803;28;20216;-70
2022/11/03 10:18:44;;;;;;;7.53;6.50;;;35.60;43.10;;;;;;5010095;28;20705;-70
2022/11/03 10:21:24;;;;;;;8.80;6.57;;;35.70;43.40;;;;;;5008639;28;20191;-70
2022/11/03 10:23:49;;;;;;;9.73;6.25;;;35.90;43.10;;;;;;5014002;28;20234;-70
2022/11/03 10:26:18;;;;;;;7.95;5.80;;;35.80;43.10;;;;;;5014063;28;20255;-70
2022/11/03 10:29:08;;;;;;;8.75;6.25;;;35.80;43.10;;;;;;5020181;28;20184;-70
2022/11/03 10:31:39;;;;;;;7.47;6.28;;;35.80;41.90;;;;;;5011027;28;20230;-69
2022/11/03 10:34:24;;;;;;;6.85;6.18;;;35.90;43.10;;;;;;5004999;28;20345;-69
2022/11/03 10:37:16;;;;;;;8.18;6.43;;;35.90;43.10;;;;;;5007227;28;20947;-70
2022/11/03 10:39:46;;;;;;;10.75;6.88;;;36.00;41.50;;;;;;5010008;28;20219;-70
2022/11/03 10:42:19;;;;;;;9.73;6.60;;;35.80;42.40;;;;;;5019665;28;20738;-70
2022/11/03 10:44:45;;;;;;;9.20;6.45;;;35.60;40.50;;;;;;5016392;28;20208;-70
2022/11/03 10:47:22;;;;;;;5.88;4.88;;;35.50;42.40;;;;;;5018088;28;20184;-70
2022/11/03 10:49:48;;;;;;;7.05;5.13;;;35.30;39.70;;;;;;5013425;28;20187;-70
2022/11/03 10:52:14;;;;;;;5.20;4.50;;;34.90;42.40;;;;;;5014244;28;20176;-70
2022/11/03 10:54:39;;;;;;;5.55;5.03;;;34.80;41.30;;;;;;5014848;28;20243;-70
2022/11/03 10:57:05;;;;;;;5.35;4.82;;;34.90;41.20;;;;;;5014090;28;20691;-70
2022/11/03 10:59:33;;;;;;;6.80;5.03;;;34.90;41.10;;;;;;5015164;28;20204;-70
2022/11/03 11:01:59;;;;;;;8.40;5.90;;;34.90;42.50;;;;;;5011848;28;20188;-70
2022/11/03 11:04:25;;;;;;;12.75;5.60;;;35.00;42.20;;;;;;5015119;28;20204;-70
2022/11/03 11:06:51;;;;;;;5.47;4.85;;;35.20;41.60;;;;;;5013920;28;20219;-70
2022/11/03 11:09:24;;;;;;;5.00;4.00;;;35.40;41.80;;;;;;5015127;28;20815;-70
2022/11/03 11:12:14;;;;;;;4.15;3.50;;;35.50;40.30;;;;;;5015308;28;20279;-69
2022/11/03 11:14:58;;;;;;;5.35;3.42;;;35.50;39.10;;;;;;5013022;28;20202;-70
2022/11/03 11:17:44;;;;;;;5.13;3.05;;;35.60;40.50;;;;;;5010953;28;20192;-70
2022/11/03 11:20:20;;;;;;;4.68;4.03;;;35.70;40.10;;;;;;5016259;28;20224;-69
2022/11/03 11:22:48;;;;;;;7.10;4.40;;;35.80;41.30;;;;;;5008882;28;20279;-69
2022/11/03 11:25:14;;;;;;;4.55;3.67;;;35.90;40.30;;;;;;5009809;28;20184;-69
2022/11/03 11:27:39;;;;;;;4.68;3.75;;;36.10;40.50;;;;;;5020414;28;20179;-69
2022/11/03 11:30:26;;;;;;;5.13;3.47;;;36.10;40.90;;;;;;5014711;28;20678;-70
2022/11/03 11:33:00;;;;;;;4.05;3.08;;;36.00;40.30;;;;;;5013607;28;21007;-70
2022/11/03 11:35:25;;;;;;;6.50;2.83;;;36.10;39.20;;;;;;5016259;28;20177;-69
2022/11/03 11:37:53;;;;;;;4.28;2.50;;;36.30;40.60;;;;;;5011124;28;20184;-69
2022/11/03 11:40:25;;;;;;;2.00;1.40;;;36.50;40.50;;;;;;5013303;28;20212;-70
2022/11/03 11:43:19;;;;;;;1.67;1.50;;;36.70;39.60;;;;;;5006676;28;20181;-69
2022/11/03 11:46:22;;;;;;;5.32;1.80;;;37.00;37.90;;;;;;5007184;28;20700;-70
2022/11/03 11:49:14;;;;;;;1.80;1.63;;;37.10;38.70;;;;;;5014250;28;20216;-70
2022/11/03 11:51:39;;;;;;;4.32;2.28;;;37.30;37.60;;;;;;5031304;28;20228;-70
2022/11/03 11:54:08;;;;;;;3.72;2.22;;;37.30;37.30;;;;;;5016543;28;20208;-70
2022/11/03 11:56:44;;;;;;;3.47;1.85;;;37.40;37.20;;;;;;5015145;28;20177;-70
2022/11/03 11:59:20;;;;;;;2.42;1.25;;;37.40;37.30;;;;;;5017445;28;20219;-70
2022/11/03 12:01:50;;;;;;;3.05;1.80;;;37.30;38.10;;;;;;5013672;28;20372;-70
2022/11/03 12:04:22;;;;;;;2.95;2.33;;;37.20;37.90;;;;;;5012738;28;20191;-70
2022/11/03 12:06:47;;;;;;;2.85;2.45;;;37.20;38.90;;;;;;5011302;28;20188;-70
2022/11/03 12:09:21;;;;;;;5.75;2.50;;;37.00;38.10;;;;;;5011870;28;20215;-69
2022/11/03 12:11:58;;;;;;;4.03;2.78;;;37.00;38.10;;;;;;5015935;28;20176;-69
2022/11/03 12:14:29;;;;;;;3.72;2.65;;;36.90;38.30;;;;;;5013840;28;20184;-69
2022/11/03 12:16:56;;;;;;;7.68;2.78;;;36.80;38.10;;;;;;5013001;28;20185;-69
2022/11/03 12:19:44;;;;;;;3.67;2.55;;;36.90;38.10;;;;;;5009882;28;20668;-69
2022/11/03 12:22:23;;;;;;;5.93;2.42;;;36.90;37.40;;;;;;5012919;28;20270;-70
2022/11/03 12:24:50;;;;;;;5.00;2.80;;;36.90;38.10;;;;;;5009794;28;20197;-69
2022/11/03 12:27:17;;;;;;;2.50;2.20;;;36.90;37.50;;;;;;5013206;28;20176;-69
2022/11/03 12:29:43;;;;;;;2.20;1.98;;;36.80;37.50;;;;;;5010277;28;20267;-69
2022/11/03 12:32:09;;;;;;;4.35;1.90;;;36.80;38.00;;;;;;5012901;28;20234;-69
2022/11/03 12:34:35;;;;;;;4.50;1.85;;;36.80;37.30;;;;;;5017013;28;20188;-69
2022/11/03 12:37:01;;;;;;;3.75;2.08;;;36.40;38.50;;;;;;5009745;28;20697;-70
2022/11/03 12:39:26;;;;;;;2.53;1.83;;;36.20;37.50;;;;;;5013837;28;20946;-69
2022/11/03 12:41:52;;;;;;;4.18;1.90;;;36.10;39.20;;;;;;5014929;28;20184;-70
2022/11/03 12:44:17;;;;;;;3.97;2.22;;;36.00;38.40;;;;;;5011851;28;20192;-69
2022/11/03 12:46:43;;;;;;;2.60;1.75;;;35.90;39.10;;;;;;5013502;28;20188;-69
2022/11/03 12:49:09;;;;;;;2.97;2.10;;;35.90;38.70;;;;;;5012333;28;20648;-69
2022/11/03 12:51:34;;;;;;;4.30;1.95;;;35.90;37.60;;;;;;5009744;28;20184;-69
2022/11/03 12:54:00;;;;;;;2.30;2.10;;;35.90;38.90;;;;;;5007934;28;20194;-70
2022/11/03 12:56:25;;;;;;;6.38;1.92;;;35.80;37.90;;;;;;5006734;28;20604;-70
2022/11/03 12:58:51;;;;;;;2.65;1.77;;;35.70;38.10;;;;;;5002581;28;20588;-72
2022/11/03 13:01:17;;;;;;;2.60;2.17;;;35.70;38.80;;;;;;5007461;28;20181;-71
2022/11/03 13:03:43;;;;;;;5.20;2.25;;;35.50;37.90;;;;;;5009860;28;20187;-70
2022/11/03 13:06:10;;;;;;;2.33;2.15;;;35.30;38.50;;;;;;5007590;28;20742;-70
2022/11/03 13:08:36;;;;;;;3.78;2.15;;;35.20;38.40;;;;;;5010070;28;20296;-70
2022/11/03 13:11:02;;;;;;;4.13;2.15;;;35.20;38.30;;;;;;5009828;28;20258;-70
2022/11/03 13:13:28;;;;;;;6.40;2.05;;;35.00;39.00;;;;;;5010154;28;20180;-70
2022/11/03 13:15:54;;;;;;;2.88;2.25;;;34.90;38.40;;;;;;5013006;28;20203;-70
2022/11/03 13:18:21;;;;;;;9.57;2.50;;;34.80;38.80;;;;;;5009205;28;20322;-70
2022/11/03 13:20:48;;;;;;;4.65;2.88;;;34.70;40.00;;;;;;5005316;28;20195;-71